createdAt,value
2019-01-17T00:02:29.832Z,10.37
2019-01-17T00:05:09.057Z,10.60
2019-01-17T00:07:41.687Z,10.57
2019-01-17T00:10:14.272Z,9.33
2019-01-17T00:12:47.069Z,9.17
2019-01-17T00:15:35.086Z,10.33
2019-01-17T00:18:07.752Z,9.83
2019-01-17T00:20:43.218Z,9.60
2019-01-17T00:23:25.277Z,9.90
2019-01-17T00:26:01.148Z,8.73
2019-01-17T00:28:47.304Z,9.10
2019-01-17T00:31:33.348Z,9.30
2019-01-17T00:34:21.604Z,7.90
2019-01-17T00:36:54.771Z,8.83
2019-01-17T00:39:32.392Z,8.83
2019-01-17T00:42:17.252Z,7.90
2019-01-17T00:44:49.943Z,8.53
2019-01-17T00:47:19.817Z,8.33
2019-01-17T00:50:04.857Z,8.93
2019-01-17T00:52:51.317Z,9.03
2019-01-17T00:55:37.641Z,8.90
2019-01-17T00:58:10.516Z,8.60
2019-01-17T01:00:52.760Z,8.50
2019-01-17T01:03:22.620Z,9.00
2019-01-17T01:05:58.388Z,8.73
2019-01-17T01:08:37.248Z,8.17
2019-01-17T01:11:19.248Z,8.53
2019-01-17T01:14:04.427Z,7.30
2019-01-17T01:16:35.860Z,7.57
2019-01-17T01:19:08.873Z,7.30
2019-01-17T01:21:38.764Z,7.03
2019-01-17T01:24:25.320Z,8.07
2019-01-17T01:27:00.831Z,7.33
2019-01-17T01:29:47.201Z,7.07
2019-01-17T01:32:19.860Z,6.93
2019-01-17T01:34:55.572Z,6.80
2019-01-17T01:37:28.488Z,6.73
2019-01-17T01:39:58.348Z,6.83
2019-01-17T01:42:45.104Z,6.73
2019-01-17T01:45:29.925Z,7.07
2019-01-17T01:47:59.784Z,6.80
2019-01-17T01:50:45.096Z,6.87
2019-01-17T01:53:13.312Z,6.77
2019-01-17T01:55:41.596Z,7.40
2019-01-17T01:58:09.841Z,6.83
2019-01-17T02:00:38.055Z,6.70
2019-01-17T02:03:06.309Z,7.37
2019-01-17T02:05:34.597Z,7.10
2019-01-17T02:08:02.920Z,7.43
2019-01-17T02:10:31.132Z,6.77
2019-01-17T02:12:59.509Z,6.63
2019-01-17T02:15:27.785Z,7.70
2019-01-17T02:17:56.032Z,7.70
2019-01-17T02:20:24.336Z,7.83
2019-01-17T02:22:52.588Z,7.37
2019-01-17T02:25:20.871Z,7.67
2019-01-17T02:27:49.116Z,6.70
2019-01-17T02:30:17.406Z,6.97
2019-01-17T02:32:45.624Z,6.70
2019-01-17T02:35:13.872Z,7.23
2019-01-17T02:37:42.119Z,7.20
2019-01-17T02:40:11.045Z,7.73
2019-01-17T02:42:39.326Z,7.10
2019-01-17T02:45:09.454Z,6.87
2019-01-17T02:47:37.736Z,6.97
2019-01-17T02:50:07.252Z,7.30
2019-01-17T02:52:35.541Z,6.63
2019-01-17T02:55:04.866Z,7.10
2019-01-17T02:57:33.077Z,6.83
2019-01-17T03:00:01.320Z,7.20
2019-01-17T03:02:29.612Z,7.27
2019-01-17T03:04:57.858Z,7.60
2019-01-17T03:07:26.083Z,7.10
2019-01-17T03:09:54.326Z,7.13
2019-01-17T03:12:22.552Z,7.20
2019-01-17T03:14:50.792Z,6.83
2019-01-17T03:17:19.029Z,6.37
2019-01-17T03:19:47.258Z,6.47
2019-01-17T03:22:15.472Z,7.30
2019-01-17T03:24:43.732Z,6.63
2019-01-17T03:27:11.954Z,6.97
2019-01-17T03:29:40.248Z,6.90
2019-01-17T03:32:08.604Z,7.30
2019-01-17T03:34:36.822Z,7.13
2019-01-17T03:37:05.145Z,7.00
2019-01-17T03:39:33.361Z,6.80
2019-01-17T03:42:01.608Z,7.10
2019-01-17T03:44:29.836Z,7.33
2019-01-17T03:46:58.096Z,6.37
2019-01-17T03:49:26.305Z,7.00
2019-01-17T03:51:54.552Z,7.40
2019-01-17T03:54:22.773Z,6.67
2019-01-17T03:56:51.097Z,5.83
2019-01-17T03:59:19.316Z,5.07
2019-01-17T04:01:47.632Z,4.10
2019-01-17T04:04:15.853Z,4.33
2019-01-17T04:06:44.098Z,5.93
2019-01-17T04:09:12.381Z,4.57
2019-01-17T04:11:40.629Z,5.57
2019-01-17T04:14:08.914Z,4.83
2019-01-17T04:16:37.164Z,5.90
2019-01-17T04:19:05.389Z,6.23
2019-01-17T04:21:33.640Z,5.43
2019-01-17T04:24:01.861Z,5.73
2019-01-17T04:26:30.118Z,6.00
2019-01-17T04:28:58.341Z,5.63
2019-01-17T04:31:26.588Z,4.37
2019-01-17T04:33:54.808Z,5.80
2019-01-17T04:36:23.058Z,5.63
2019-01-17T04:38:51.277Z,5.30
2019-01-17T04:41:19.532Z,5.37
2019-01-17T04:43:47.740Z,5.87
2019-01-17T04:46:15.987Z,6.03
2019-01-17T04:48:44.205Z,5.67
2019-01-17T04:51:12.454Z,6.20
2019-01-17T04:53:40.663Z,5.77
2019-01-17T04:56:08.892Z,5.90
2019-01-17T04:58:37.136Z,5.60
2019-01-17T05:01:05.352Z,5.40
2019-01-17T05:03:33.601Z,5.43
2019-01-17T05:06:01.821Z,5.43
2019-01-17T05:08:30.069Z,6.20
2019-01-17T05:10:58.357Z,5.73
2019-01-17T05:13:26.646Z,5.50
2019-01-17T05:15:54.860Z,5.60
2019-01-17T05:18:23.107Z,5.73
2019-01-17T05:20:51.393Z,5.07
2019-01-17T05:23:19.644Z,5.97
2019-01-17T05:25:47.860Z,6.30
2019-01-17T05:28:16.214Z,6.60
2019-01-17T05:30:44.428Z,6.40
2019-01-17T05:33:12.672Z,4.93
2019-01-17T05:35:40.890Z,6.33
2019-01-17T05:38:09.133Z,7.67
2019-01-17T05:40:38.664Z,7.50
2019-01-17T05:43:06.997Z,7.40
2019-01-17T05:45:35.225Z,6.43
2019-01-17T05:48:03.538Z,6.03
2019-01-17T05:50:31.756Z,7.63
2019-01-17T05:53:00.017Z,7.37
2019-01-17T05:55:28.232Z,7.13
2019-01-17T05:57:56.448Z,6.37
2019-01-17T06:00:24.709Z,6.83
2019-01-17T06:02:52.922Z,6.50
2019-01-17T06:05:21.338Z,7.07
2019-01-17T06:07:49.552Z,7.53
2019-01-17T06:10:17.799Z,7.53
2019-01-17T06:12:46.021Z,10.30
2019-01-17T06:15:16.185Z,10.43
2019-01-17T06:17:44.408Z,9.60
2019-01-17T06:20:16.356Z,9.27
2019-01-17T06:22:44.641Z,9.27
2019-01-17T06:28:00.553Z,10.50
2019-01-17T06:30:28.800Z,10.07
2019-01-17T06:33:06.041Z,11.07
2019-01-17T06:35:34.297Z,10.47
2019-01-17T06:38:02.577Z,9.57
2019-01-17T06:40:30.825Z,9.00
2019-01-17T06:42:59.040Z,8.37
2019-01-17T06:45:27.287Z,9.40
2019-01-17T06:47:55.505Z,9.37
2019-01-17T06:50:23.764Z,12.07
2019-01-17T06:52:52.052Z,10.20
2019-01-17T06:55:20.336Z,9.03
2019-01-17T06:57:48.517Z,8.63
2019-01-17T07:00:17.237Z,7.63
2019-01-17T07:02:45.533Z,8.13
2019-01-17T07:05:14.448Z,8.30
2019-01-17T07:07:42.745Z,7.93
2019-01-17T07:10:12.233Z,6.80
2019-01-17T07:12:40.526Z,8.43
2019-01-17T07:15:09.244Z,9.00
2019-01-17T07:17:37.464Z,8.73
2019-01-17T07:20:07.489Z,8.40
2019-01-17T07:25:41.190Z,7.90
2019-01-17T07:28:09.057Z,8.40
2019-01-17T07:30:37.385Z,8.33
2019-01-17T07:33:05.597Z,8.10
2019-01-17T07:35:33.916Z,7.30
2019-01-17T07:38:02.209Z,7.53
2019-01-17T07:40:30.528Z,6.90
2019-01-17T07:42:58.761Z,8.07
2019-01-17T07:45:27.248Z,8.53
2019-01-17T07:47:55.495Z,14.10
2019-01-17T07:50:23.784Z,14.80
2019-01-17T07:52:52.038Z,12.43
2019-01-17T07:55:20.329Z,9.53
2019-01-17T07:57:48.573Z,11.10
2019-01-17T08:00:18.334Z,10.60
2019-01-17T08:02:48.124Z,11.37
2019-01-17T08:05:16.335Z,11.27
2019-01-17T08:12:44.012Z,8.00
2019-01-17T08:15:12.904Z,8.80
2019-01-17T08:17:41.145Z,9.30
2019-01-17T08:20:10.895Z,9.67
2019-01-17T08:22:39.146Z,12.07
2019-01-17T08:25:10.149Z,16.00
2019-01-17T08:27:38.380Z,16.63
2019-01-17T08:30:11.115Z,14.40
2019-01-17T08:32:39.404Z,16.00
2019-01-17T08:35:07.887Z,13.23
2019-01-17T08:37:36.136Z,15.43
2019-01-17T08:40:07.760Z,14.23
2019-01-17T08:42:36.341Z,11.33
2019-01-17T08:45:05.629Z,11.80
2019-01-17T08:47:34.175Z,11.17
2019-01-17T08:50:02.493Z,12.27
2019-01-17T08:52:30.712Z,11.07
2019-01-17T08:54:59.301Z,11.30
2019-01-17T08:57:27.840Z,9.60
2019-01-17T08:59:56.488Z,9.37
2019-01-17T09:02:25.030Z,9.13
2019-01-17T09:04:53.601Z,9.27
2019-01-17T09:07:21.821Z,8.30
2019-01-17T09:09:50.073Z,7.63
2019-01-17T09:12:18.613Z,6.83
2019-01-17T09:14:47.193Z,6.67
2019-01-17T09:17:15.476Z,5.83
2019-01-17T09:19:44.049Z,5.70
2019-01-17T09:22:12.264Z,6.70
2019-01-17T09:24:40.508Z,5.40
2019-01-17T09:27:09.049Z,4.60
2019-01-17T09:29:37.292Z,6.00
2019-01-17T09:32:05.900Z,6.03
2019-01-17T09:34:34.472Z,5.77
2019-01-17T09:37:02.688Z,5.60
2019-01-17T09:39:31.003Z,7.83
2019-01-17T09:41:59.216Z,7.57
2019-01-17T09:44:27.797Z,7.83
2019-01-17T09:46:56.342Z,7.53
2019-01-17T09:49:24.580Z,9.33
2019-01-17T09:51:52.869Z,8.63
2019-01-17T09:54:21.108Z,9.20
2019-01-17T09:56:49.657Z,8.17
2019-01-17T09:59:17.896Z,7.27
2019-01-17T10:01:46.441Z,8.30
2019-01-17T10:04:15.017Z,7.10
2019-01-17T10:06:43.300Z,7.10
2019-01-17T10:09:11.561Z,5.30
2019-01-17T10:11:40.109Z,5.70
2019-01-17T10:14:08.729Z,6.20
2019-01-17T10:16:38.841Z,5.47
2019-01-17T10:19:08.621Z,5.93
2019-01-17T10:22:08.856Z,4.93
2019-01-17T10:24:52.449Z,4.70
2019-01-17T10:27:22.200Z,5.53
2019-01-17T10:29:59.781Z,5.40
2019-01-17T10:32:37.097Z,5.43
2019-01-17T10:35:23.100Z,4.77
2019-01-17T10:37:52.856Z,5.40
2019-01-17T10:40:41.004Z,5.80
2019-01-17T10:43:10.752Z,4.80
2019-01-17T10:45:54.541Z,5.57
2019-01-17T10:48:27.212Z,6.37
2019-01-17T10:51:21.544Z,6.30
2019-01-17T10:53:51.296Z,4.43
2019-01-17T10:56:21.076Z,6.93
2019-01-17T10:58:53.497Z,6.53
2019-01-17T11:01:23.277Z,5.37
2019-01-17T11:03:59.233Z,5.60
2019-01-17T11:06:36.958Z,5.93
2019-01-17T11:09:11.481Z,5.90
2019-01-17T11:11:59.287Z,5.53
2019-01-17T11:14:34.787Z,6.03
2019-01-17T11:17:18.521Z,5.63
2019-01-17T11:19:51.116Z,6.93
2019-01-17T11:22:38.958Z,4.03
2019-01-17T11:25:11.120Z,5.73
2019-01-17T11:27:57.550Z,5.77
2019-01-17T11:30:27.301Z,5.70
2019-01-17T11:33:27.332Z,4.90
2019-01-17T11:36:12.321Z,5.27
2019-01-17T11:38:44.766Z,4.53
2019-01-17T11:41:14.517Z,5.43
2019-01-17T11:44:00.848Z,5.63
2019-01-17T11:46:30.628Z,5.33
2019-01-17T11:49:00.380Z,6.00
2019-01-17T11:51:41.184Z,6.47
2019-01-17T11:54:24.866Z,6.33
2019-01-17T11:57:03.114Z,5.70
2019-01-17T11:59:32.957Z,5.53
2019-01-17T12:02:08.828Z,6.30
2019-01-17T12:04:36.519Z,5.73
2019-01-17T12:07:06.428Z,4.80
2019-01-17T12:09:34.647Z,5.40
2019-01-17T12:12:02.961Z,4.33
2019-01-17T12:14:31.566Z,5.83
2019-01-17T12:17:00.140Z,6.10
2019-01-17T12:19:28.424Z,5.23
2019-01-17T12:21:56.637Z,6.10
2019-01-17T12:24:24.952Z,4.90
2019-01-17T12:26:53.240Z,4.70
2019-01-17T12:29:21.817Z,6.00
2019-01-17T12:31:50.364Z,5.63
2019-01-17T12:34:18.928Z,5.60
2019-01-17T12:36:47.212Z,5.03
2019-01-17T12:39:15.849Z,5.70
2019-01-17T12:41:44.467Z,3.53
2019-01-17T12:44:12.708Z,4.67
2019-01-17T12:46:41.252Z,5.47
2019-01-17T12:49:09.501Z,6.03
2019-01-17T12:51:37.712Z,5.90
2019-01-17T12:54:06.024Z,4.77
2019-01-17T12:56:34.309Z,5.40
2019-01-17T12:59:02.616Z,5.83
2019-01-17T13:01:30.832Z,4.60
2019-01-17T13:03:59.076Z,4.73
2019-01-17T13:06:27.288Z,5.00
2019-01-17T13:08:55.537Z,4.20
2019-01-17T13:11:23.746Z,3.73
2019-01-17T13:13:51.992Z,4.43
2019-01-17T13:16:20.200Z,3.33
2019-01-17T13:18:48.769Z,4.07
2019-01-17T13:21:17.055Z,3.90
2019-01-17T13:23:45.296Z,3.77
2019-01-17T13:26:13.580Z,3.87
2019-01-17T13:28:42.156Z,3.90
2019-01-17T13:31:10.441Z,3.97
2019-01-17T13:33:39.008Z,3.97
2019-01-17T13:36:10.471Z,4.40
2019-01-17T13:38:39.083Z,5.03
2019-01-17T13:41:07.388Z,4.80
2019-01-17T13:43:35.677Z,5.60
2019-01-17T13:46:04.598Z,3.83
2019-01-17T13:48:32.817Z,3.83
2019-01-17T13:51:01.059Z,4.93
2019-01-17T13:53:29.664Z,4.40
2019-01-17T13:55:57.909Z,4.53
2019-01-17T13:58:26.125Z,5.27
2019-01-17T14:00:54.833Z,5.70
2019-01-17T14:03:23.045Z,4.67
2019-01-17T14:05:51.288Z,4.83
2019-01-17T14:08:19.576Z,5.10
2019-01-17T14:10:48.137Z,4.20
2019-01-17T14:13:16.348Z,4.37
2019-01-17T14:15:44.588Z,2.97
2019-01-17T14:18:12.805Z,4.60
2019-01-17T14:20:41.372Z,3.80
2019-01-17T14:23:09.590Z,4.13
2019-01-17T14:25:38.157Z,3.83
2019-01-17T14:28:06.699Z,3.90
2019-01-17T14:30:35.474Z,3.60
2019-01-17T14:33:03.960Z,4.33
2019-01-17T14:35:32.208Z,3.73
2019-01-17T14:38:00.422Z,3.70
2019-01-17T14:40:28.737Z,3.40
2019-01-17T14:42:56.947Z,3.60
2019-01-17T14:45:25.188Z,4.33
2019-01-17T14:47:53.404Z,3.97
2019-01-17T14:50:22.720Z,4.07
2019-01-17T14:52:51.398Z,4.27
2019-01-17T14:55:19.967Z,3.40
2019-01-17T14:57:48.249Z,3.63
2019-01-17T15:00:27.854Z,3.60
2019-01-17T15:02:56.077Z,3.40
2019-01-17T15:05:24.386Z,3.63
2019-01-17T15:07:53.060Z,3.03
2019-01-17T15:10:28.749Z,3.10
2019-01-17T15:12:56.960Z,3.30
2019-01-17T15:15:25.340Z,2.60
2019-01-17T15:17:53.552Z,3.47
2019-01-17T15:20:21.764Z,3.40
2019-01-17T15:22:51.083Z,3.40
2019-01-17T15:25:19.365Z,3.03
2019-01-17T15:27:48.004Z,2.73
2019-01-17T15:30:17.488Z,3.47
2019-01-17T15:32:46.198Z,3.60
2019-01-17T15:35:14.481Z,3.10
2019-01-17T15:37:42.723Z,2.90
2019-01-17T15:40:20.169Z,3.10
2019-01-17T15:42:48.413Z,3.33
2019-01-17T15:45:17.021Z,3.27
2019-01-17T15:47:45.332Z,3.93
2019-01-17T15:50:14.714Z,3.10
2019-01-17T15:52:43.349Z,3.70
2019-01-17T15:55:12.937Z,4.10
2019-01-17T15:57:41.176Z,3.57
2019-01-17T16:00:16.828Z,3.33
2019-01-17T16:02:45.145Z,6.00
2019-01-17T16:05:14.031Z,4.20
2019-01-17T16:07:42.269Z,4.10
2019-01-17T16:10:13.549Z,3.43
2019-01-17T16:12:41.865Z,3.73
2019-01-17T16:15:11.656Z,3.43
2019-01-17T16:17:40.221Z,3.47
2019-01-17T16:20:10.004Z,3.23
2019-01-17T16:22:38.245Z,3.53
2019-01-17T16:25:08.132Z,3.50
2019-01-17T16:27:41.851Z,3.67
2019-01-17T16:30:09.669Z,2.60
2019-01-17T16:32:37.913Z,2.90
2019-01-17T16:35:06.293Z,3.70
2019-01-17T16:37:34.532Z,3.67
2019-01-17T16:40:02.812Z,3.00
2019-01-17T16:42:31.052Z,3.33
2019-01-17T16:44:59.266Z,3.13
2019-01-17T16:47:27.508Z,2.93
2019-01-17T16:49:55.722Z,3.17
2019-01-17T16:52:23.960Z,2.83
2019-01-17T16:54:52.172Z,2.77
2019-01-17T16:57:20.403Z,3.00
2019-01-17T16:59:48.632Z,2.90
2019-01-17T17:02:16.845Z,2.90
2019-01-17T17:04:45.417Z,3.10
2019-01-17T17:07:13.628Z,3.27
2019-01-17T17:09:41.868Z,3.30
2019-01-17T17:12:10.081Z,3.03
2019-01-17T17:14:38.325Z,3.20
2019-01-17T17:17:06.870Z,3.10
2019-01-17T17:19:35.440Z,3.60
2019-01-17T17:22:04.048Z,3.47
2019-01-17T17:24:32.616Z,3.20
2019-01-17T17:27:01.161Z,3.47
2019-01-17T17:29:29.728Z,3.37
2019-01-17T17:31:58.274Z,3.67
2019-01-17T17:34:26.512Z,3.00
2019-01-17T17:36:54.724Z,3.40
2019-01-17T17:39:22.974Z,3.20
2019-01-17T17:41:51.508Z,3.43
2019-01-17T17:44:20.080Z,3.70
2019-01-17T17:46:48.291Z,3.83
2019-01-17T17:49:16.538Z,4.43
2019-01-17T17:51:44.748Z,4.57
2019-01-17T17:54:13.387Z,4.13
2019-01-17T17:56:42.065Z,4.73
2019-01-17T17:59:10.804Z,3.83
2019-01-17T18:01:39.116Z,3.97
2019-01-17T18:04:07.684Z,3.57
2019-01-17T18:06:36.292Z,3.03
2019-01-17T18:09:06.076Z,3.63
2019-01-17T18:11:34.315Z,3.33
2019-01-17T18:14:02.528Z,3.57
2019-01-17T18:16:31.092Z,4.27
2019-01-17T18:18:59.632Z,5.73
2019-01-17T18:21:28.208Z,6.80
2019-01-17T18:23:56.421Z,5.10
2019-01-17T18:26:24.728Z,4.97
2019-01-17T18:28:52.943Z,4.63
2019-01-17T18:31:21.644Z,4.80
2019-01-17T18:33:49.856Z,5.17
2019-01-17T18:36:18.164Z,4.70
2019-01-17T18:38:46.377Z,4.53
2019-01-17T18:41:14.621Z,4.33
2019-01-17T18:43:42.836Z,3.93
2019-01-17T18:46:11.080Z,4.27
2019-01-17T18:48:39.292Z,3.70
2019-01-17T18:51:07.924Z,4.13
2019-01-17T18:53:36.465Z,3.77
2019-01-17T18:56:04.712Z,3.70
2019-01-17T18:58:32.992Z,3.50
2019-01-17T19:01:01.241Z,3.67
2019-01-17T19:03:29.448Z,3.80
2019-01-17T19:05:57.720Z,3.73
2019-01-17T19:08:26.000Z,3.53
2019-01-17T19:10:54.637Z,3.60
2019-01-17T19:13:23.321Z,3.77
2019-01-17T19:15:51.631Z,4.20
2019-01-17T19:18:19.845Z,3.60
2019-01-17T19:20:49.335Z,3.70
2019-01-17T19:23:17.636Z,3.80
2019-01-17T19:25:45.876Z,3.77
2019-01-17T19:28:14.094Z,2.93
2019-01-17T19:30:42.405Z,3.57
2019-01-17T19:33:10.646Z,2.90
2019-01-17T19:35:38.860Z,3.23
2019-01-17T19:38:07.171Z,4.20
2019-01-17T19:40:35.384Z,3.00
2019-01-17T19:43:03.698Z,3.43
2019-01-17T19:45:31.912Z,3.80
2019-01-17T19:48:00.221Z,3.50
2019-01-17T19:50:32.276Z,3.00
2019-01-17T19:53:00.517Z,3.63
2019-01-17T19:55:28.802Z,3.20
2019-01-17T19:57:57.039Z,3.03
2019-01-17T20:00:25.320Z,2.70
2019-01-17T20:02:53.562Z,3.67
2019-01-17T20:05:26.069Z,3.23
2019-01-17T20:07:54.312Z,3.10
2019-01-17T20:10:23.796Z,3.23
2019-01-17T20:12:52.107Z,2.80
2019-01-17T20:15:21.313Z,3.70
2019-01-17T20:17:49.677Z,3.87
2019-01-17T20:20:18.456Z,3.57
2019-01-17T20:22:46.764Z,3.27
2019-01-17T20:25:15.048Z,3.40
2019-01-17T20:27:43.364Z,3.70
2019-01-17T20:30:13.120Z,3.13
2019-01-17T20:32:41.369Z,2.97
2019-01-17T20:35:09.655Z,3.10
2019-01-17T20:37:37.985Z,3.37
2019-01-17T20:40:13.831Z,4.00
2019-01-17T20:42:42.161Z,3.60
2019-01-17T20:45:11.336Z,3.60
2019-01-17T20:47:39.648Z,3.83
2019-01-17T20:50:09.408Z,3.87
2019-01-17T20:52:37.655Z,3.53
2019-01-17T20:55:07.432Z,5.50
2019-01-17T20:57:35.749Z,3.20
2019-01-17T21:00:05.501Z,3.33
2019-01-17T21:02:33.714Z,4.23
2019-01-17T21:05:01.964Z,3.10
2019-01-17T21:07:30.252Z,4.10
2019-01-17T21:09:58.492Z,3.20
2019-01-17T21:12:26.711Z,3.13
2019-01-17T21:14:54.952Z,4.00
2019-01-17T21:17:23.167Z,4.10
2019-01-17T21:19:51.413Z,3.60
2019-01-17T21:22:19.629Z,3.83
2019-01-17T21:24:47.871Z,3.67
2019-01-17T21:27:16.086Z,3.43
2019-01-17T21:29:44.329Z,3.63
2019-01-17T21:32:12.541Z,3.10
2019-01-17T21:34:40.781Z,4.00
2019-01-17T21:37:08.998Z,3.40
2019-01-17T21:39:37.244Z,3.60
2019-01-17T21:42:05.459Z,3.57
2019-01-17T21:44:33.696Z,3.50
2019-01-17T21:47:01.920Z,4.37
2019-01-17T21:49:30.160Z,3.70
2019-01-17T21:51:58.377Z,3.30
2019-01-17T21:54:26.620Z,3.60
2019-01-17T21:56:54.832Z,3.50
2019-01-17T21:59:23.077Z,2.57
2019-01-17T22:01:51.359Z,4.00
2019-01-17T22:04:19.600Z,3.97
2019-01-17T22:06:47.820Z,3.83
2019-01-17T22:09:16.032Z,3.80
2019-01-17T22:11:44.277Z,4.07
2019-01-17T22:14:12.488Z,4.10
2019-01-17T22:16:40.740Z,4.23
2019-01-17T22:19:09.024Z,3.70
2019-01-17T22:21:37.268Z,3.70
2019-01-17T22:24:05.475Z,4.30
2019-01-17T22:26:33.720Z,3.93
2019-01-17T22:29:02.497Z,3.33
2019-01-17T22:31:30.881Z,4.03
2019-01-17T22:33:59.094Z,3.90
2019-01-17T22:36:27.336Z,3.30
2019-01-17T22:38:55.552Z,3.60
2019-01-17T22:41:23.865Z,4.10
2019-01-17T22:43:52.248Z,3.50
2019-01-17T22:46:20.497Z,11.40
2019-01-17T22:48:48.708Z,3.10
2019-01-17T22:51:17.021Z,3.57
2019-01-17T22:53:45.238Z,3.90
2019-01-17T22:56:13.476Z,3.87
2019-01-17T22:58:41.759Z,3.80
2019-01-17T23:01:11.540Z,3.80
2019-01-17T23:03:39.757Z,3.93
2019-01-17T23:06:08.072Z,3.53
2019-01-17T23:08:36.279Z,4.53
2019-01-17T23:11:04.520Z,3.73
2019-01-17T23:13:32.737Z,3.93
2019-01-17T23:16:00.980Z,3.63
2019-01-17T23:18:29.192Z,3.40
2019-01-17T23:20:57.409Z,3.60
2019-01-17T23:23:25.652Z,3.47
2019-01-17T23:25:53.864Z,4.03
2019-01-17T23:28:22.115Z,3.97
2019-01-17T23:30:50.333Z,3.90
2019-01-17T23:33:18.648Z,4.97
2019-01-17T23:35:46.930Z,4.83
2019-01-17T23:38:15.174Z,4.47
2019-01-17T23:40:43.386Z,4.07
2019-01-17T23:43:11.627Z,4.60
2019-01-17T23:45:39.910Z,3.97
2019-01-17T23:48:08.150Z,5.10
2019-01-17T23:50:36.364Z,4.47
2019-01-17T23:53:05.190Z,4.57
2019-01-17T23:55:33.397Z,4.70
2019-01-17T23:58:01.647Z,4.83
